createdAt,value
2018-10-03T00:01:35.654Z,10.60
2018-10-03T00:04:08.873Z,10.70
2018-10-03T00:06:43.549Z,10.03
2018-10-03T00:09:16.160Z,9.50
2018-10-03T00:12:06.075Z,9.10
2018-10-03T00:14:42.598Z,8.93
2018-10-03T00:17:17.396Z,8.33
2018-10-03T00:19:54.307Z,9.03
2018-10-03T00:22:27.549Z,7.83
2018-10-03T00:25:01.599Z,9.52
2018-10-03T00:27:39.483Z,8.98
2018-10-03T00:30:14.129Z,8.13
2018-10-03T00:32:46.757Z,8.57
2018-10-03T00:35:23.095Z,7.17
2018-10-03T00:37:56.524Z,7.03
2018-10-03T00:40:29.564Z,7.70
2018-10-03T00:43:02.471Z,7.30
2018-10-03T00:45:35.024Z,6.93
2018-10-03T00:48:09.084Z,7.30
2018-10-03T00:50:42.858Z,7.90
2018-10-03T00:53:15.653Z,6.67
2018-10-03T00:55:50.131Z,6.17
2018-10-03T00:58:25.327Z,6.43
2018-10-03T01:00:57.982Z,6.13
2018-10-03T01:03:33.281Z,6.77
2018-10-03T01:06:06.878Z,6.70
2018-10-03T01:08:39.381Z,7.17
2018-10-03T01:11:13.313Z,6.10
2018-10-03T01:13:48.941Z,7.23
2018-10-03T01:16:24.840Z,6.23
2018-10-03T01:19:01.460Z,5.97
2018-10-03T01:21:35.116Z,7.00
2018-10-03T01:24:10.303Z,6.70
2018-10-03T01:26:43.939Z,7.27
2018-10-03T01:29:16.872Z,7.90
2018-10-03T01:31:49.665Z,6.33
2018-10-03T01:34:23.307Z,6.90
2018-10-03T01:36:56.281Z,6.93
2018-10-03T01:39:29.058Z,7.00
2018-10-03T01:42:01.814Z,7.87
2018-10-03T01:44:36.269Z,7.60
2018-10-03T01:47:08.793Z,8.48
2018-10-03T01:49:41.395Z,8.77
2018-10-03T01:52:14.110Z,8.17
2018-10-03T01:54:46.749Z,8.47
2018-10-03T01:57:19.532Z,9.33
2018-10-03T01:59:52.472Z,8.82
2018-10-03T02:02:25.069Z,8.53
2018-10-03T02:04:57.536Z,8.57
2018-10-03T02:07:30.382Z,9.75
2018-10-03T02:10:07.051Z,9.93
2018-10-03T02:12:41.396Z,9.70
2018-10-03T02:15:15.995Z,10.93
2018-10-03T02:17:48.537Z,11.17
2018-10-03T02:20:21.125Z,11.10
2018-10-03T02:22:54.897Z,10.53
2018-10-03T02:25:27.545Z,11.40
2018-10-03T02:28:00.055Z,12.27
2018-10-03T02:30:32.974Z,12.27
2018-10-03T02:33:05.501Z,14.15
2018-10-03T02:35:38.077Z,14.37
2018-10-03T02:38:10.923Z,15.35
2018-10-03T02:40:44.092Z,16.07
2018-10-03T02:43:16.610Z,16.63
2018-10-03T02:45:50.607Z,18.07
2018-10-03T02:48:23.178Z,19.17
2018-10-03T02:50:55.713Z,19.30
2018-10-03T02:53:28.570Z,20.47
2018-10-03T02:56:01.142Z,21.07
2018-10-03T02:58:33.696Z,20.50
2018-10-03T03:01:06.876Z,24.10
2018-10-03T03:03:39.696Z,25.80
2018-10-03T03:06:14.037Z,29.37
2018-10-03T03:08:46.868Z,32.75
2018-10-03T03:11:19.400Z,29.97
2018-10-03T03:13:52.274Z,32.03
2018-10-03T03:16:28.557Z,33.17
2018-10-03T03:19:04.246Z,34.77
2018-10-03T03:21:37.684Z,42.40
2018-10-03T03:24:10.571Z,37.43
2018-10-03T03:26:43.084Z,38.90
2018-10-03T03:29:16.944Z,47.80
2018-10-03T03:31:49.850Z,43.23
2018-10-03T03:34:23.523Z,43.10
2018-10-03T03:36:56.055Z,43.90
2018-10-03T03:39:30.297Z,43.80
2018-10-03T03:42:02.923Z,42.37
2018-10-03T03:44:35.393Z,44.67
2018-10-03T03:47:08.181Z,44.50
2018-10-03T03:49:40.820Z,44.80
2018-10-03T03:52:15.137Z,45.43
2018-10-03T03:54:47.982Z,46.10
2018-10-03T03:57:21.957Z,47.07
2018-10-03T03:59:55.208Z,47.07
2018-10-03T04:02:31.022Z,47.60
2018-10-03T04:05:03.682Z,57.35
2018-10-03T04:07:39.392Z,50.97
2018-10-03T04:10:13.402Z,51.13
2018-10-03T04:12:48.593Z,60.47
2018-10-03T04:15:23.273Z,54.57
2018-10-03T04:18:00.240Z,50.13
2018-10-03T04:20:32.854Z,49.37
2018-10-03T04:23:06.041Z,49.23
2018-10-03T04:25:39.240Z,49.73
2018-10-03T04:28:12.127Z,50.83
2018-10-03T04:30:44.568Z,48.40
2018-10-03T04:33:17.778Z,51.30
2018-10-03T04:35:50.968Z,49.40
2018-10-03T04:38:23.496Z,49.27
2018-10-03T04:40:56.339Z,48.17
2018-10-03T04:43:28.873Z,48.33
2018-10-03T04:46:01.528Z,46.53
2018-10-03T04:48:36.482Z,44.23
2018-10-03T04:51:09.125Z,44.27
2018-10-03T04:53:45.671Z,44.23
2018-10-03T04:56:19.569Z,42.80
2018-10-03T04:58:54.063Z,42.93
2018-10-03T05:01:26.690Z,41.73
2018-10-03T05:03:59.669Z,41.30
2018-10-03T05:06:32.285Z,40.83
2018-10-03T05:09:07.597Z,43.43
2018-10-03T05:11:40.069Z,38.90
2018-10-03T05:14:12.608Z,41.43
2018-10-03T05:16:46.545Z,34.73
2018-10-03T05:19:21.372Z,36.17
2018-10-03T05:21:54.610Z,33.07
2018-10-03T05:24:27.761Z,31.90
2018-10-03T05:27:04.016Z,33.80
2018-10-03T05:29:37.231Z,33.43
2018-10-03T05:32:09.936Z,34.90
2018-10-03T05:34:43.969Z,31.87
2018-10-03T05:37:16.585Z,34.33
2018-10-03T05:39:51.120Z,31.73
2018-10-03T05:42:24.248Z,30.30
2018-10-03T05:44:56.853Z,29.25
2018-10-03T05:47:32.304Z,27.98
2018-10-03T05:50:05.236Z,26.65
2018-10-03T05:52:38.012Z,24.95
2018-10-03T05:55:10.581Z,21.83
2018-10-03T05:57:44.086Z,22.23
2018-10-03T06:00:17.668Z,19.77
2018-10-03T06:02:57.559Z,20.33
2018-10-03T06:05:30.714Z,23.20
2018-10-03T06:08:08.308Z,21.00
2018-10-03T06:10:42.151Z,18.30
2018-10-03T06:13:20.436Z,19.30
2018-10-03T06:15:56.796Z,18.43
2018-10-03T06:18:32.557Z,18.57
2018-10-03T06:21:07.468Z,18.20
2018-10-03T06:24:03.075Z,16.63
2018-10-03T06:26:52.303Z,17.40
2018-10-03T06:29:26.003Z,15.13
2018-10-03T06:31:58.497Z,14.23
2018-10-03T06:34:33.708Z,15.87
2018-10-03T06:37:07.847Z,16.70
2018-10-03T06:39:41.480Z,14.83
2018-10-03T06:42:16.427Z,16.40
2018-10-03T06:44:50.289Z,16.37
2018-10-03T06:47:40.364Z,13.93
2018-10-03T06:50:19.003Z,14.80
2018-10-03T06:52:54.637Z,14.33
2018-10-03T06:55:30.653Z,15.57
2018-10-03T06:58:05.934Z,14.10
2018-10-03T07:00:44.550Z,12.47
2018-10-03T07:03:21.913Z,12.80
2018-10-03T07:05:57.369Z,12.70
2018-10-03T07:08:34.142Z,12.70
2018-10-03T07:11:07.544Z,13.30
2018-10-03T07:13:42.644Z,11.90
2018-10-03T07:16:15.849Z,10.90
2018-10-03T07:18:52.850Z,9.97
2018-10-03T07:21:25.976Z,10.57
2018-10-03T07:24:05.575Z,11.43
2018-10-03T07:26:39.552Z,9.97
2018-10-03T07:29:13.104Z,9.27
2018-10-03T07:31:47.916Z,9.37
2018-10-03T07:34:23.301Z,9.20
2018-10-03T07:36:56.813Z,9.90
2018-10-03T07:39:33.932Z,8.53
2018-10-03T07:42:11.575Z,8.07
2018-10-03T07:44:50.639Z,8.25
2018-10-03T07:47:27.816Z,7.22
2018-10-03T07:50:09.692Z,6.27
2018-10-03T07:52:46.180Z,6.70
2018-10-03T07:55:19.824Z,5.93
2018-10-03T07:58:10.666Z,6.37
2018-10-03T08:00:49.552Z,6.50
2018-10-03T08:03:23.956Z,5.63
2018-10-03T08:05:59.943Z,5.73
2018-10-03T08:08:33.235Z,5.47
2018-10-03T08:11:08.724Z,5.33
2018-10-03T08:13:46.787Z,5.10
2018-10-03T08:16:26.762Z,5.27
2018-10-03T08:19:06.758Z,4.60
2018-10-03T08:21:45.404Z,4.73
2018-10-03T08:24:19.969Z,6.05
2018-10-03T08:26:53.574Z,5.67
2018-10-03T08:29:38.754Z,6.15
2018-10-03T08:32:19.878Z,5.00
2018-10-03T08:34:55.880Z,4.67
2018-10-03T08:37:33.480Z,5.00
2018-10-03T08:40:11.757Z,4.80
2018-10-03T08:42:53.728Z,5.40
2018-10-03T08:45:31.842Z,5.40
2018-10-03T08:48:22.035Z,5.80
2018-10-03T08:50:59.610Z,5.17
2018-10-03T08:53:36.669Z,4.73
2018-10-03T08:56:26.744Z,4.90
2018-10-03T08:59:09.516Z,4.43
2018-10-03T09:01:49.039Z,5.10
2018-10-03T09:04:28.237Z,4.00
2018-10-03T09:07:04.421Z,3.83
2018-10-03T09:09:41.393Z,5.17
2018-10-03T09:12:15.024Z,4.73
2018-10-03T09:14:49.640Z,4.80
2018-10-03T09:17:26.345Z,5.47
2018-10-03T09:20:05.362Z,4.87
2018-10-03T09:22:39.943Z,4.80
2018-10-03T09:25:19.735Z,4.20
2018-10-03T09:27:54.983Z,3.90
2018-10-03T09:30:28.684Z,4.60
2018-10-03T09:33:04.771Z,4.90
2018-10-03T09:35:40.117Z,4.50
2018-10-03T09:38:16.324Z,5.23
2018-10-03T09:40:51.564Z,4.67
2018-10-03T09:43:31.412Z,5.13
2018-10-03T09:46:07.579Z,4.50
2018-10-03T09:48:45.464Z,4.83
2018-10-03T09:51:23.262Z,4.77
2018-10-03T09:53:58.734Z,4.07
2018-10-03T09:56:36.411Z,5.33
2018-10-03T09:59:12.606Z,5.17
2018-10-03T10:01:58.644Z,5.20
2018-10-03T10:04:37.735Z,4.87
2018-10-03T10:07:15.653Z,5.28
2018-10-03T10:10:00.595Z,6.37
2018-10-03T10:12:45.372Z,6.05
2018-10-03T10:15:17.452Z,5.35
2018-10-03T10:17:53.769Z,5.70
2018-10-03T10:20:31.984Z,6.80
2018-10-03T10:23:10.405Z,5.83
2018-10-03T10:25:49.254Z,4.80
2018-10-03T10:28:30.085Z,5.77
2018-10-03T10:31:05.704Z,4.50
2018-10-03T10:33:44.772Z,5.60
2018-10-03T10:36:25.400Z,3.70
2018-10-03T10:39:07.609Z,4.57
2018-10-03T10:41:49.684Z,4.07
2018-10-03T10:44:26.672Z,4.63
2018-10-03T10:47:01.510Z,4.27
2018-10-03T10:49:34.391Z,4.90
2018-10-03T10:52:11.986Z,4.10
2018-10-03T10:54:46.777Z,5.60
2018-10-03T10:57:28.185Z,4.60
2018-10-03T11:00:09.367Z,4.87
2018-10-03T11:02:52.974Z,4.20
2018-10-03T11:05:31.383Z,4.33
2018-10-03T11:08:17.070Z,5.07
2018-10-03T11:10:55.653Z,5.20
2018-10-03T11:13:48.101Z,3.90
2018-10-03T11:16:25.478Z,4.00
2018-10-03T11:19:01.166Z,4.23
2018-10-03T11:21:35.850Z,4.32
2018-10-03T11:24:14.817Z,4.73
2018-10-03T11:26:54.532Z,3.67
2018-10-03T11:29:29.785Z,3.17
2018-10-03T11:32:13.590Z,4.50
2018-10-03T11:34:48.720Z,3.17
2018-10-03T11:37:24.728Z,3.62
2018-10-03T11:40:01.480Z,3.60
2018-10-03T11:42:39.147Z,3.53
2018-10-03T11:45:22.996Z,4.10
2018-10-03T11:47:56.395Z,3.97
2018-10-03T11:50:40.603Z,3.53
2018-10-03T11:53:17.877Z,3.43
2018-10-03T11:55:51.437Z,3.07
2018-10-03T11:58:33.267Z,3.70
2018-10-03T12:01:21.490Z,3.40
2018-10-03T12:03:55.860Z,2.70
2018-10-03T12:06:35.248Z,3.20
2018-10-03T12:09:44.101Z,3.60
2018-10-03T12:12:38.337Z,3.67
2018-10-03T12:15:16.551Z,4.40
2018-10-03T12:18:04.082Z,3.43
2018-10-03T12:20:43.671Z,3.40
2018-10-03T12:23:23.470Z,3.17
2018-10-03T12:26:13.124Z,3.40
2018-10-03T12:28:49.799Z,3.67
2018-10-03T12:31:26.848Z,3.10
2018-10-03T12:34:07.504Z,3.63
2018-10-03T12:36:42.935Z,4.20
2018-10-03T12:39:17.598Z,3.50
2018-10-03T12:41:54.517Z,3.23
2018-10-03T12:44:41.751Z,3.70
2018-10-03T12:47:18.063Z,3.17
2018-10-03T12:49:53.025Z,3.90
2018-10-03T12:52:26.145Z,2.97
2018-10-03T12:55:01.253Z,3.67
2018-10-03T12:57:47.740Z,3.63
2018-10-03T13:00:33.021Z,3.70
2018-10-03T13:03:09.685Z,3.90
2018-10-03T13:05:44.100Z,4.03
2018-10-03T13:08:24.722Z,3.33
2018-10-03T13:10:57.637Z,3.07
2018-10-03T13:13:32.220Z,4.03
2018-10-03T13:16:11.405Z,3.17
2018-10-03T13:18:45.525Z,3.60
2018-10-03T13:21:24.475Z,3.20
2018-10-03T13:24:05.021Z,2.80
2018-10-03T13:26:38.620Z,3.27
2018-10-03T13:29:16.598Z,3.17
2018-10-03T13:31:54.769Z,3.23
2018-10-03T13:34:37.958Z,3.92
2018-10-03T13:37:16.033Z,3.43
2018-10-03T13:39:49.836Z,3.70
2018-10-03T13:42:32.812Z,2.87
2018-10-03T13:45:14.969Z,3.47
2018-10-03T13:47:50.741Z,3.63
2018-10-03T13:50:28.157Z,3.03
2018-10-03T13:53:11.925Z,3.20
2018-10-03T13:55:49.689Z,2.93
2018-10-03T13:58:30.499Z,3.37
2018-10-03T14:01:08.925Z,3.10
2018-10-03T14:03:47.763Z,3.07
2018-10-03T14:06:21.818Z,2.40
2018-10-03T14:09:22.103Z,3.33
2018-10-03T14:11:58.941Z,3.87
2018-10-03T14:14:36.131Z,3.27
2018-10-03T14:17:12.652Z,3.97
2018-10-03T14:19:46.840Z,3.57
2018-10-03T14:22:22.897Z,2.90
2018-10-03T14:25:06.082Z,3.43
2018-10-03T14:27:40.072Z,3.20
2018-10-03T14:30:19.061Z,2.97
2018-10-03T14:32:55.422Z,3.07
2018-10-03T14:35:30.727Z,2.83
2018-10-03T14:38:05.904Z,2.90
2018-10-03T14:40:44.269Z,2.87
2018-10-03T14:43:30.074Z,3.72
2018-10-03T14:46:08.706Z,3.40
2018-10-03T14:48:42.762Z,3.20
2018-10-03T14:51:17.485Z,3.87
2018-10-03T14:53:53.230Z,3.40
2018-10-03T14:56:27.390Z,2.83
2018-10-03T14:59:12.289Z,2.77
2018-10-03T15:01:51.215Z,3.07
2018-10-03T15:04:30.528Z,3.00
2018-10-03T15:07:09.293Z,2.90
2018-10-03T15:09:45.857Z,2.67
2018-10-03T15:12:24.806Z,3.30
2018-10-03T15:14:59.813Z,3.20
2018-10-03T15:17:37.880Z,3.43
2018-10-03T15:20:13.473Z,2.90
2018-10-03T15:22:50.197Z,3.27
2018-10-03T15:25:28.372Z,2.80
2018-10-03T15:28:03.697Z,3.17
2018-10-03T15:30:46.807Z,2.87
2018-10-03T15:33:22.676Z,3.10
2018-10-03T15:35:56.949Z,2.87
2018-10-03T15:38:37.332Z,2.90
2018-10-03T15:41:15.164Z,2.73
2018-10-03T15:43:53.742Z,3.33
2018-10-03T15:46:32.487Z,3.10
2018-10-03T15:49:08.618Z,3.00
2018-10-03T15:51:44.247Z,3.23
2018-10-03T15:54:22.832Z,2.50
2018-10-03T15:56:58.744Z,2.83
2018-10-03T15:59:35.964Z,3.33
2018-10-03T16:02:11.456Z,3.03
2018-10-03T16:04:50.477Z,3.90
2018-10-03T16:07:26.676Z,3.40
2018-10-03T16:10:14.851Z,3.60
2018-10-03T16:12:49.463Z,3.77
2018-10-03T16:15:25.830Z,4.93
2018-10-03T16:18:09.687Z,3.92
2018-10-03T16:20:55.170Z,3.00
2018-10-03T16:23:30.653Z,3.13
2018-10-03T16:26:08.403Z,3.40
2018-10-03T16:28:51.620Z,3.67
2018-10-03T16:31:34.173Z,3.83
2018-10-03T16:34:18.252Z,3.53
2018-10-03T16:37:01.055Z,3.77
2018-10-03T16:39:47.932Z,2.70
2018-10-03T16:42:22.603Z,3.43
2018-10-03T16:45:03.805Z,4.07
2018-10-03T16:47:43.411Z,3.00
2018-10-03T16:50:35.822Z,3.07
2018-10-03T16:53:14.434Z,4.13
2018-10-03T16:55:52.617Z,3.63
2018-10-03T16:58:30.549Z,2.47
2018-10-03T17:01:08.714Z,9.63
2018-10-03T17:03:45.760Z,3.80
2018-10-03T17:06:22.039Z,3.50
2018-10-03T17:09:08.263Z,4.20
2018-10-03T17:11:48.474Z,3.90
2018-10-03T17:14:43.751Z,3.50
2018-10-03T17:17:26.503Z,3.80
2018-10-03T17:20:06.077Z,3.20
2018-10-03T17:22:43.800Z,3.50
2018-10-03T17:25:25.412Z,3.53
2018-10-03T17:28:04.017Z,3.70
2018-10-03T17:30:46.658Z,3.30
2018-10-03T17:33:33.483Z,3.27
2018-10-03T17:36:09.120Z,3.30
2018-10-03T17:38:49.420Z,3.80
2018-10-03T17:41:31.904Z,4.05
2018-10-03T17:44:19.626Z,3.27
2018-10-03T17:46:58.792Z,3.60
2018-10-03T17:49:38.127Z,4.87
2018-10-03T17:52:21.275Z,4.57
2018-10-03T17:55:04.630Z,5.07
2018-10-03T17:57:41.906Z,4.40
2018-10-03T18:00:23.180Z,3.87
2018-10-03T18:02:58.697Z,4.13
2018-10-03T18:05:34.221Z,4.18
2018-10-03T18:08:11.981Z,4.03
2018-10-03T18:10:49.657Z,10.13
2018-10-03T18:13:36.601Z,13.23
2018-10-03T18:16:15.372Z,8.10
2018-10-03T18:19:11.387Z,7.20
2018-10-03T18:21:49.112Z,7.93
2018-10-03T18:24:28.221Z,5.83
2018-10-03T18:27:24.481Z,5.30
2018-10-03T18:30:07.645Z,4.50
2018-10-03T18:32:45.730Z,4.70
2018-10-03T18:35:23.262Z,4.37
2018-10-03T18:38:11.636Z,5.17
2018-10-03T18:41:06.067Z,5.73
2018-10-03T18:43:43.727Z,7.97
2018-10-03T18:46:21.573Z,6.27
2018-10-03T18:49:04.007Z,6.18
2018-10-03T18:51:44.276Z,5.90
2018-10-03T18:54:22.381Z,6.90
2018-10-03T18:57:04.167Z,6.97
2018-10-03T18:59:48.925Z,6.57
2018-10-03T19:02:34.026Z,7.37
2018-10-03T19:05:13.462Z,12.43
2018-10-03T19:07:54.165Z,9.37
2018-10-03T19:10:31.650Z,7.50
2018-10-03T19:13:17.517Z,7.60
2018-10-03T19:15:54.353Z,6.10
2018-10-03T19:18:33.665Z,6.40
2018-10-03T19:21:27.804Z,6.60
2018-10-03T19:24:12.005Z,6.87
2018-10-03T19:26:53.588Z,7.72
2018-10-03T19:29:33.622Z,7.93
2018-10-03T19:32:12.561Z,5.77
2018-10-03T19:34:57.512Z,5.63
2018-10-03T19:37:42.517Z,6.77
2018-10-03T19:40:26.612Z,8.17
2018-10-03T19:46:11.640Z,7.80
2018-10-03T19:48:49.758Z,8.70
2018-10-03T19:51:32.145Z,7.97
2018-10-03T19:54:13.546Z,8.53
2018-10-03T19:56:49.793Z,9.20
2018-10-03T19:59:24.878Z,11.03
2018-10-03T20:01:58.645Z,9.57
2018-10-03T20:04:36.663Z,9.60
2018-10-03T20:07:15.676Z,7.47
2018-10-03T20:09:56.495Z,8.57
2018-10-03T20:12:31.882Z,8.65
2018-10-03T20:15:31.327Z,7.83
2018-10-03T20:18:07.668Z,9.70
2018-10-03T20:20:51.576Z,8.30
2018-10-03T20:23:33.981Z,7.53
2018-10-03T20:26:31.096Z,6.87
2018-10-03T20:29:20.876Z,9.32
2018-10-03T20:32:01.431Z,8.35
2018-10-03T20:34:39.250Z,8.40
2018-10-03T20:37:20.290Z,6.05
2018-10-03T20:40:14.222Z,5.70
2018-10-03T20:42:47.810Z,7.30
2018-10-03T20:45:27.411Z,7.33
2018-10-03T20:48:02.317Z,9.07
2018-10-03T20:50:51.247Z,8.43
2018-10-03T20:53:27.832Z,5.57
2018-10-03T20:56:06.949Z,5.33
2018-10-03T20:58:43.873Z,6.17
2018-10-03T21:01:19.449Z,5.63
2018-10-03T21:03:56.656Z,6.83
2018-10-03T21:06:32.255Z,6.43
2018-10-03T21:09:12.837Z,8.25
2018-10-03T21:11:51.810Z,6.27
2018-10-03T21:14:31.595Z,7.10
2018-10-03T21:17:08.352Z,6.03
2018-10-03T21:19:43.493Z,7.00
2018-10-03T21:22:20.978Z,6.43
2018-10-03T21:25:13.378Z,5.90
2018-10-03T21:27:51.783Z,6.50
2018-10-03T21:30:34.243Z,5.10
2018-10-03T21:33:12.780Z,5.03
2018-10-03T21:35:48.176Z,6.87
2018-10-03T21:38:22.824Z,7.30
2018-10-03T21:40:59.945Z,7.47
2018-10-03T21:43:35.084Z,6.93
2018-10-03T21:46:08.431Z,6.97
2018-10-03T21:48:43.631Z,7.53
2018-10-03T21:51:20.968Z,7.37
2018-10-03T21:54:07.264Z,7.90
2018-10-03T21:56:43.999Z,8.03
2018-10-03T21:59:22.969Z,9.07
2018-10-03T22:01:57.755Z,8.03
2018-10-03T22:04:32.540Z,7.67
2018-10-03T22:07:11.520Z,8.07
2018-10-03T22:09:46.208Z,9.07
2018-10-03T22:12:20.286Z,8.97
2018-10-03T22:14:53.372Z,8.20
2018-10-03T22:17:37.729Z,10.20
2018-10-03T22:20:11.604Z,9.43
2018-10-03T22:22:51.117Z,11.60
2018-10-03T22:25:33.154Z,10.77
2018-10-03T22:28:10.294Z,10.30
2018-10-03T22:30:44.424Z,9.97
2018-10-03T22:33:22.274Z,9.87
2018-10-03T22:35:57.338Z,6.83
2018-10-03T22:38:32.501Z,8.43
2018-10-03T22:41:10.899Z,8.10
2018-10-03T22:43:47.616Z,7.90
2018-10-03T22:46:23.265Z,8.60
2018-10-03T22:48:57.952Z,7.80
2018-10-03T22:51:30.864Z,8.40
2018-10-03T22:54:14.209Z,6.50
2018-10-03T22:56:51.436Z,6.80
2018-10-03T22:59:32.774Z,8.17
2018-10-03T23:02:08.815Z,9.43
2018-10-03T23:04:43.058Z,7.27
2018-10-03T23:07:18.049Z,6.53
2018-10-03T23:09:52.033Z,6.30
2018-10-03T23:12:25.319Z,7.47
2018-10-03T23:14:58.401Z,6.23
2018-10-03T23:17:34.113Z,6.47
2018-10-03T23:20:07.578Z,9.77
2018-10-03T23:22:41.736Z,7.07
2018-10-03T23:25:16.226Z,6.60
2018-10-03T23:27:49.553Z,8.73
2018-10-03T23:30:22.195Z,8.50
2018-10-03T23:32:55.304Z,7.47
2018-10-03T23:35:32.249Z,7.63
2018-10-03T23:38:06.132Z,7.33
2018-10-03T23:40:39.885Z,6.27
2018-10-03T23:43:12.387Z,10.85
2018-10-03T23:45:45.833Z,7.93
2018-10-03T23:48:20.876Z,7.20
2018-10-03T23:50:53.488Z,8.97
2018-10-03T23:53:26.053Z,6.27
2018-10-03T23:55:59.931Z,9.00
2018-10-03T23:58:33.489Z,6.93
